createdAt,value
2022-12-23T00:01:34.523Z,52.02
2022-12-23T00:04:01.273Z,52.05
2022-12-23T00:06:28.038Z,51.74
2022-12-23T00:08:58.176Z,51.50
2022-12-23T00:11:27.007Z,51.47
2022-12-23T00:14:20.126Z,50.96
2022-12-23T00:16:50.001Z,51.50
2022-12-23T00:19:16.688Z,51.40
2022-12-23T00:21:43.411Z,51.62
2022-12-23T00:24:12.044Z,51.14
2022-12-23T00:26:40.986Z,50.83
2022-12-23T00:29:13.760Z,50.75
2022-12-23T00:31:40.544Z,51.16
2022-12-23T00:34:07.370Z,51.19
2022-12-23T00:36:34.321Z,52.15
2022-12-23T00:39:19.669Z,51.13
2022-12-23T00:42:04.847Z,51.14
2022-12-23T00:44:31.683Z,50.82
2022-12-23T00:46:58.472Z,50.85
2022-12-23T00:49:43.641Z,50.61
2022-12-23T00:52:15.414Z,51.89
2022-12-23T00:54:42.292Z,50.97
2022-12-23T00:57:09.010Z,51.48
2022-12-23T00:59:35.907Z,51.49
2022-12-23T01:02:21.325Z,51.94
2022-12-23T01:05:06.564Z,51.94
2022-12-23T01:07:33.366Z,52.55
2022-12-23T01:10:00.085Z,52.65
2022-12-23T01:12:27.194Z,52.86
2022-12-23T01:14:53.975Z,52.24
2022-12-23T01:17:20.864Z,51.64
2022-12-23T01:19:47.691Z,51.90
2022-12-23T01:22:14.433Z,51.42
2022-12-23T01:24:41.054Z,51.76
2022-12-23T01:27:07.920Z,52.00
2022-12-23T01:29:34.577Z,51.96
2022-12-23T01:32:01.441Z,51.38
2022-12-23T01:34:34.253Z,51.50
2022-12-23T01:37:03.155Z,51.48
2022-12-23T01:39:29.825Z,51.37
2022-12-23T01:42:15.363Z,51.38
2022-12-23T01:45:02.290Z,51.92
2022-12-23T01:47:43.908Z,52.98
2022-12-23T01:50:37.766Z,53.69
2022-12-23T01:53:26.486Z,53.99
2022-12-23T01:55:57.517Z,54.33
2022-12-23T01:58:36.452Z,55.07
2022-12-23T02:01:22.189Z,56.74
2022-12-23T02:03:53.362Z,55.70
2022-12-23T02:06:43.539Z,55.85
2022-12-23T02:09:17.932Z,54.44
2022-12-23T02:12:02.363Z,53.97
2022-12-23T02:14:55.118Z,53.72
2022-12-23T02:17:41.410Z,53.62
2022-12-23T02:20:40.572Z,54.20
2022-12-23T02:23:44.479Z,53.68
2022-12-23T02:27:08.200Z,53.17
2022-12-23T02:30:08.035Z,53.29
2022-12-23T02:33:41.385Z,53.15
2022-12-23T02:36:20.095Z,52.65
2022-12-23T02:39:14.295Z,53.29
2022-12-23T02:41:57.454Z,52.93
2022-12-23T02:44:29.868Z,52.81
2022-12-23T02:47:06.317Z,52.88
2022-12-23T02:49:39.432Z,52.36
2022-12-23T02:52:13.170Z,52.31
2022-12-23T02:54:56.095Z,52.33
2022-12-23T02:57:33.645Z,52.19
2022-12-23T03:00:03.091Z,52.19
2022-12-23T03:02:34.239Z,52.26
2022-12-23T03:05:01.404Z,52.18
2022-12-23T03:07:41.427Z,52.46
2022-12-23T03:10:19.449Z,52.25
2022-12-23T03:13:11.759Z,52.83
2022-12-23T03:16:00.886Z,53.61
2022-12-23T03:18:45.142Z,52.84
2022-12-23T03:21:35.562Z,52.40
2022-12-23T03:24:18.869Z,56.36
2022-12-23T03:26:57.532Z,54.24
2022-12-23T03:30:04.963Z,53.89
2022-12-23T03:32:55.814Z,53.84
2022-12-23T03:35:38.331Z,54.31
2022-12-23T03:38:07.573Z,53.77
2022-12-23T03:40:58.201Z,53.26
2022-12-23T03:43:33.060Z,53.62
2022-12-23T03:46:08.688Z,53.17
2022-12-23T03:49:07.104Z,52.51
2022-12-23T03:51:50.811Z,53.33
2022-12-23T03:54:27.172Z,53.53
2022-12-23T03:57:03.081Z,51.79
2022-12-23T03:59:45.122Z,52.00
2022-12-23T04:02:42.242Z,53.83
2022-12-23T04:05:27.180Z,53.57
2022-12-23T04:08:01.495Z,53.09
2022-12-23T04:10:28.614Z,52.67
2022-12-23T04:12:55.507Z,53.08
2022-12-23T04:15:25.271Z,53.31
2022-12-23T04:17:54.493Z,52.89
2022-12-23T04:20:21.477Z,52.75
2022-12-23T04:22:48.656Z,53.07
2022-12-23T04:25:17.215Z,52.22
2022-12-23T04:27:44.382Z,51.78
2022-12-23T04:30:13.856Z,52.51
2022-12-23T04:32:41.939Z,51.68
2022-12-23T04:35:09.865Z,51.69
2022-12-23T04:37:36.782Z,51.85
2022-12-23T04:40:04.825Z,51.57
2022-12-23T04:42:31.514Z,51.69
2022-12-23T04:44:58.475Z,51.87
2022-12-23T04:47:25.206Z,51.66
2022-12-23T04:49:51.858Z,51.49
2022-12-23T04:52:18.612Z,51.46
2022-12-23T04:54:46.371Z,51.91
2022-12-23T04:57:13.777Z,51.56
2022-12-23T04:59:40.479Z,51.74
2022-12-23T05:02:08.328Z,52.13
2022-12-23T05:04:35.222Z,51.71
2022-12-23T05:07:02.028Z,52.18
2022-12-23T05:09:28.733Z,51.80
2022-12-23T05:11:55.626Z,52.30
2022-12-23T05:14:22.401Z,52.56
2022-12-23T05:16:49.203Z,52.59
2022-12-23T05:19:16.007Z,53.03
2022-12-23T05:21:42.748Z,52.86
2022-12-23T05:24:09.552Z,55.00
2022-12-23T05:26:36.337Z,55.46
2022-12-23T05:29:03.124Z,56.26
2022-12-23T05:31:29.816Z,58.17
2022-12-23T05:33:59.585Z,60.99
2022-12-23T05:36:30.995Z,62.54
2022-12-23T05:38:57.815Z,64.96
2022-12-23T05:41:24.618Z,69.89
2022-12-23T05:43:51.383Z,71.39
2022-12-23T05:46:24.280Z,72.19
2022-12-23T05:48:53.243Z,72.76
2022-12-23T05:51:20.116Z,74.65
2022-12-23T05:53:46.934Z,73.03
2022-12-23T05:56:13.761Z,74.96
2022-12-23T05:58:40.579Z,74.17
2022-12-23T06:01:07.845Z,72.55
2022-12-23T06:03:34.941Z,75.79
2022-12-23T06:06:01.818Z,75.04
2022-12-23T06:08:28.519Z,74.02
2022-12-23T06:10:55.348Z,74.17
2022-12-23T06:13:22.030Z,75.32
2022-12-23T06:15:48.744Z,75.49
2022-12-23T06:18:15.523Z,75.66
2022-12-23T06:20:45.034Z,75.93
2022-12-23T06:23:11.731Z,75.55
2022-12-23T06:25:38.456Z,76.06
2022-12-23T06:28:07.505Z,78.39
2022-12-23T06:30:34.336Z,78.70
2022-12-23T06:33:01.094Z,76.36
2022-12-23T06:35:27.874Z,78.72
2022-12-23T06:37:54.579Z,78.34
2022-12-23T06:40:21.308Z,78.05
2022-12-23T06:42:48.137Z,76.51
2022-12-23T06:45:14.905Z,77.54
2022-12-23T06:47:41.677Z,78.03
2022-12-23T06:50:09.241Z,77.84
2022-12-23T06:52:35.930Z,76.86
2022-12-23T06:55:02.684Z,78.56
2022-12-23T06:57:29.403Z,80.49
2022-12-23T06:59:56.128Z,83.02
2022-12-23T07:02:23.162Z,82.45
2022-12-23T07:04:49.869Z,82.69
2022-12-23T07:07:16.546Z,81.40
2022-12-23T07:09:43.248Z,81.60
2022-12-23T07:12:10.153Z,82.11
2022-12-23T07:14:36.810Z,82.31
2022-12-23T07:17:03.630Z,81.72
2022-12-23T07:19:30.413Z,80.86
2022-12-23T07:21:57.207Z,80.06
2022-12-23T07:24:23.923Z,79.98
2022-12-23T07:26:51.773Z,79.59
2022-12-23T07:29:18.458Z,78.18
2022-12-23T07:31:45.358Z,76.78
2022-12-23T07:34:12.139Z,75.85
2022-12-23T07:36:38.810Z,75.66
2022-12-23T07:39:05.609Z,77.08
2022-12-23T07:41:32.383Z,76.32
2022-12-23T07:44:06.609Z,75.57
2022-12-23T07:46:33.475Z,74.45
2022-12-23T07:49:00.206Z,76.68
2022-12-23T07:51:26.987Z,77.77
2022-12-23T07:53:53.701Z,76.63
2022-12-23T07:56:20.823Z,73.07
2022-12-23T07:58:52.579Z,72.36
2022-12-23T08:01:21.253Z,71.53
2022-12-23T08:03:48.719Z,72.57
2022-12-23T08:06:16.635Z,74.30
2022-12-23T08:08:45.940Z,74.15
2022-12-23T08:11:14.962Z,76.51
2022-12-23T08:13:44.508Z,74.67
2022-12-23T08:16:12.432Z,73.39
2022-12-23T08:18:41.443Z,73.89
2022-12-23T08:21:19.315Z,74.43
2022-12-23T08:23:47.620Z,69.30
2022-12-23T08:26:18.562Z,70.76
2022-12-23T08:28:45.899Z,70.21
2022-12-23T08:31:15.868Z,73.52
2022-12-23T08:33:46.523Z,74.71
2022-12-23T08:36:23.357Z,73.79
2022-12-23T08:38:55.415Z,73.59
2022-12-23T08:41:27.646Z,72.97
2022-12-23T08:43:54.438Z,71.84
2022-12-23T08:46:21.399Z,70.38
2022-12-23T08:48:49.769Z,67.39
2022-12-23T08:51:20.204Z,69.03
2022-12-23T08:53:48.194Z,68.76
2022-12-23T08:56:21.308Z,69.77
2022-12-23T08:58:52.940Z,71.31
2022-12-23T09:01:24.123Z,71.94
2022-12-23T09:03:51.503Z,71.42
2022-12-23T09:06:28.527Z,69.65
2022-12-23T09:08:56.215Z,67.28
2022-12-23T09:11:30.142Z,70.97
2022-12-23T09:14:02.114Z,75.00
2022-12-23T09:16:29.746Z,76.21
2022-12-23T09:18:56.690Z,75.89
2022-12-23T09:21:24.545Z,76.44
2022-12-23T09:23:51.991Z,75.56
2022-12-23T09:26:27.368Z,75.78
2022-12-23T09:28:54.742Z,70.10
2022-12-23T09:31:22.809Z,69.51
2022-12-23T09:33:52.212Z,66.23
2022-12-23T09:36:20.247Z,64.90
2022-12-23T09:38:47.286Z,67.89
2022-12-23T09:42:18.709Z,70.39
2022-12-23T09:45:01.183Z,70.17
2022-12-23T09:47:29.581Z,70.95
2022-12-23T09:50:01.225Z,71.03
2022-12-23T09:52:53.796Z,72.46
2022-12-23T09:55:23.924Z,71.75
2022-12-23T09:58:02.038Z,72.29
2022-12-23T10:00:39.673Z,72.73
2022-12-23T10:03:26.087Z,70.14
2022-12-23T10:06:17.852Z,69.76
2022-12-23T10:08:47.858Z,67.09
2022-12-23T10:11:29.790Z,65.63
2022-12-23T10:14:28.771Z,65.27
2022-12-23T10:17:06.969Z,65.19
2022-12-23T10:19:41.859Z,69.03
2022-12-23T10:22:19.532Z,70.92
2022-12-23T10:24:48.236Z,72.71
2022-12-23T10:27:41.049Z,72.61
2022-12-23T10:30:41.977Z,74.58
2022-12-23T10:33:18.714Z,72.49
2022-12-23T10:36:23.537Z,69.83
2022-12-23T10:39:02.662Z,69.35
2022-12-23T10:42:04.262Z,67.67
2022-12-23T10:45:00.202Z,66.20
2022-12-23T10:47:51.743Z,64.65
2022-12-23T10:51:20.488Z,63.74
2022-12-23T10:54:06.530Z,71.77
2022-12-23T10:56:33.524Z,72.65
2022-12-23T10:59:01.460Z,74.46
2022-12-23T11:01:31.256Z,73.73
2022-12-23T11:04:08.521Z,73.58
2022-12-23T11:06:41.003Z,80.34
2022-12-23T11:09:22.528Z,82.17
2022-12-23T11:12:00.823Z,80.93
2022-12-23T11:14:42.180Z,77.24
2022-12-23T11:17:24.866Z,72.93
2022-12-23T11:20:16.297Z,71.82
2022-12-23T11:22:56.613Z,73.57
2022-12-23T11:25:36.964Z,71.86
2022-12-23T11:28:11.193Z,71.62
2022-12-23T11:30:56.258Z,69.62
2022-12-23T11:33:32.593Z,70.36
2022-12-23T11:36:23.975Z,71.34
2022-12-23T11:39:07.800Z,72.57
2022-12-23T11:41:43.922Z,72.32
2022-12-23T11:44:28.860Z,72.39
2022-12-23T11:46:55.617Z,69.78
2022-12-23T11:49:49.546Z,68.63
2022-12-23T11:52:21.129Z,68.91
2022-12-23T11:54:57.355Z,69.93
2022-12-23T11:57:47.599Z,69.55
2022-12-23T12:00:20.463Z,64.91
2022-12-23T12:02:52.969Z,64.21
2022-12-23T12:05:25.343Z,67.32
2022-12-23T12:07:52.727Z,68.45
2022-12-23T12:10:28.010Z,69.39
2022-12-23T12:13:03.689Z,70.62
2022-12-23T12:16:02.543Z,68.70
2022-12-23T12:18:29.802Z,67.42
2022-12-23T12:21:06.924Z,67.21
2022-12-23T12:23:48.715Z,65.02
2022-12-23T12:26:32.559Z,65.68
2022-12-23T12:29:08.051Z,66.03
2022-12-23T12:31:42.459Z,64.29
2022-12-23T12:34:44.311Z,63.40
2022-12-23T12:37:41.814Z,61.71
2022-12-23T12:40:26.854Z,61.10
2022-12-23T12:43:24.220Z,62.46
2022-12-23T12:46:34.145Z,61.48
2022-12-23T12:49:26.856Z,61.63
2022-12-23T12:52:09.033Z,63.89
2022-12-23T12:54:45.769Z,61.46
2022-12-23T12:57:19.411Z,59.80
2022-12-23T12:59:51.215Z,58.88
2022-12-23T13:03:04.680Z,58.93
2022-12-23T13:05:54.451Z,61.66
2022-12-23T13:09:02.905Z,63.76
2022-12-23T13:11:45.464Z,63.94
2022-12-23T13:14:27.472Z,61.79
2022-12-23T13:17:28.809Z,64.17
2022-12-23T13:20:31.414Z,63.24
2022-12-23T13:23:21.056Z,61.35
2022-12-23T13:26:05.143Z,61.94
2022-12-23T13:28:53.550Z,62.74
2022-12-23T13:32:01.120Z,60.56
2022-12-23T13:34:47.856Z,60.26
2022-12-23T13:37:26.103Z,59.72
2022-12-23T13:40:42.496Z,59.80
2022-12-23T13:43:21.507Z,58.69
2022-12-23T13:45:50.012Z,59.03
2022-12-23T13:48:47.173Z,56.35
2022-12-23T13:51:30.642Z,55.24
2022-12-23T13:54:15.518Z,53.76
2022-12-23T13:57:09.403Z,53.42
2022-12-23T13:59:43.120Z,54.53
2022-12-23T14:02:36.339Z,54.17
2022-12-23T14:05:08.380Z,54.08
2022-12-23T14:07:38.583Z,54.42
2022-12-23T14:10:22.652Z,55.62
2022-12-23T14:12:51.892Z,56.10
2022-12-23T14:15:46.272Z,57.60
2022-12-23T14:18:23.603Z,56.51
2022-12-23T14:21:14.864Z,56.52
2022-12-23T14:24:20.225Z,54.71
2022-12-23T14:27:17.097Z,53.17
2022-12-23T14:30:01.423Z,52.70
2022-12-23T14:32:55.184Z,54.17
2022-12-23T14:35:42.193Z,55.33
2022-12-23T14:38:32.066Z,53.64
2022-12-23T14:41:44.783Z,52.80
2022-12-23T14:44:21.653Z,51.95
2022-12-23T14:46:48.425Z,51.86
2022-12-23T14:49:39.943Z,51.69
2022-12-23T14:52:38.023Z,51.58
2022-12-23T14:55:32.628Z,51.77
2022-12-23T14:58:17.793Z,51.88
2022-12-23T15:01:32.376Z,52.25
2022-12-23T15:04:05.337Z,51.81
2022-12-23T15:06:44.325Z,51.20
2022-12-23T15:09:30.746Z,51.12
2022-12-23T15:12:06.433Z,51.44
2022-12-23T15:14:43.870Z,51.59
2022-12-23T15:17:35.510Z,51.67
2022-12-23T15:20:13.984Z,51.75
2022-12-23T15:22:44.381Z,51.45
2022-12-23T15:25:24.610Z,51.20
2022-12-23T15:28:01.155Z,52.22
2022-12-23T15:30:52.415Z,52.16
2022-12-23T15:36:12.105Z,52.02
2022-12-23T15:38:39.456Z,52.04
2022-12-23T15:41:16.107Z,52.10
2022-12-23T15:43:44.632Z,51.92
2022-12-23T15:46:28.643Z,52.58
2022-12-23T15:48:56.865Z,52.28
2022-12-23T15:52:06.273Z,52.10
2022-12-23T15:54:30.754Z,52.37
2022-12-23T15:57:00.200Z,52.09
2022-12-23T15:59:39.405Z,51.97
2022-12-23T16:05:38.544Z,52.30
2022-12-23T16:08:32.859Z,53.32
2022-12-23T16:11:19.711Z,53.41
2022-12-23T16:14:02.941Z,53.21
2022-12-23T16:16:48.411Z,53.10
2022-12-23T16:19:37.072Z,52.30
2022-12-23T16:22:33.081Z,52.43
2022-12-23T16:25:02.628Z,52.07
2022-12-23T16:28:02.630Z,52.17
2022-12-23T16:30:36.483Z,52.34
2022-12-23T16:33:07.094Z,52.89
2022-12-23T16:35:41.002Z,52.45
2022-12-23T16:38:13.689Z,52.45
2022-12-23T16:40:42.141Z,53.23
2022-12-23T16:43:08.873Z,53.06
2022-12-23T16:45:36.953Z,52.78
2022-12-23T16:48:25.015Z,53.04
2022-12-23T16:50:53.245Z,54.03
2022-12-23T16:53:20.082Z,53.71
2022-12-23T16:55:53.690Z,53.34
2022-12-23T16:58:25.432Z,53.78
2022-12-23T17:00:53.053Z,54.91
2022-12-23T17:03:20.927Z,54.57
2022-12-23T17:05:48.543Z,54.08
2022-12-23T17:08:15.936Z,54.16
2022-12-23T17:10:46.789Z,54.49
2022-12-23T17:13:19.073Z,54.61
2022-12-23T17:15:45.817Z,53.37
2022-12-23T17:18:15.934Z,53.12
2022-12-23T17:20:46.002Z,53.69
2022-12-23T17:23:24.915Z,53.53
2022-12-23T17:25:52.599Z,54.19
2022-12-23T17:28:19.674Z,52.93
2022-12-23T17:30:46.384Z,53.03
2022-12-23T17:33:18.420Z,52.63
2022-12-23T17:35:45.249Z,53.81
2022-12-23T17:38:16.542Z,52.97
2022-12-23T17:40:46.763Z,53.16
2022-12-23T17:43:18.106Z,53.53
2022-12-23T17:45:45.469Z,52.76
2022-12-23T17:48:20.604Z,52.37
2022-12-23T17:50:49.416Z,52.08
2022-12-23T17:53:18.957Z,51.57
2022-12-23T17:55:45.946Z,51.43
2022-12-23T17:58:13.937Z,52.11
2022-12-23T18:00:40.896Z,52.04
2022-12-23T18:03:20.240Z,52.32
2022-12-23T18:05:47.070Z,52.13
2022-12-23T18:08:13.907Z,53.88
2022-12-23T18:10:40.831Z,53.92
2022-12-23T18:13:14.232Z,52.90
2022-12-23T18:15:43.208Z,52.29
2022-12-23T18:18:20.465Z,53.14
2022-12-23T18:20:55.375Z,52.31
2022-12-23T18:23:28.352Z,53.40
2022-12-23T18:25:56.774Z,52.04
2022-12-23T18:28:24.613Z,52.30
2022-12-23T18:30:54.766Z,53.03
2022-12-23T18:33:21.855Z,52.03
2022-12-23T18:35:50.079Z,51.81
2022-12-23T18:38:18.439Z,51.46
2022-12-23T18:40:45.603Z,52.12
2022-12-23T18:43:25.229Z,52.81
2022-12-23T18:45:53.923Z,53.19
2022-12-23T18:48:21.674Z,53.16
2022-12-23T18:50:48.887Z,53.31
2022-12-23T18:53:24.608Z,52.70
2022-12-23T18:55:53.748Z,52.14
2022-12-23T18:58:21.448Z,51.91
2022-12-23T19:00:50.351Z,52.30
2022-12-23T19:03:30.620Z,52.41
2022-12-23T19:06:06.402Z,53.25
2022-12-23T19:08:35.859Z,53.56
2022-12-23T19:11:08.884Z,53.92
2022-12-23T19:13:35.752Z,54.38
2022-12-23T19:16:02.550Z,53.37
2022-12-23T19:18:29.381Z,52.52
2022-12-23T19:20:56.175Z,52.62
2022-12-23T19:23:23.061Z,53.02
2022-12-23T19:25:55.185Z,53.37
2022-12-23T19:28:22.941Z,53.96
2022-12-23T19:30:49.961Z,54.67
2022-12-23T19:33:17.047Z,54.50
2022-12-23T19:35:44.538Z,54.11
2022-12-23T19:38:12.370Z,53.40
2022-12-23T19:40:39.625Z,55.03
2022-12-23T19:43:06.380Z,55.45
2022-12-23T19:45:33.239Z,54.00
2022-12-23T19:47:59.919Z,54.72
2022-12-23T19:50:27.251Z,56.43
2022-12-23T19:52:56.064Z,55.45
2022-12-23T19:55:23.531Z,55.22
2022-12-23T19:57:50.487Z,55.43
2022-12-23T20:00:17.265Z,55.62
2022-12-23T20:02:44.225Z,55.54
2022-12-23T20:05:11.015Z,54.77
2022-12-23T20:07:37.814Z,54.30
2022-12-23T20:10:06.194Z,55.00
2022-12-23T20:12:33.092Z,56.35
2022-12-23T20:14:59.873Z,56.24
2022-12-23T20:17:26.613Z,55.86
2022-12-23T20:19:53.452Z,56.92
2022-12-23T20:22:20.171Z,56.51
2022-12-23T20:24:46.836Z,57.84
2022-12-23T20:27:15.912Z,57.63
2022-12-23T20:29:43.068Z,56.86
2022-12-23T20:32:10.536Z,55.13
2022-12-23T20:34:39.889Z,54.85
2022-12-23T20:37:07.482Z,55.02
2022-12-23T20:39:34.574Z,55.61
2022-12-23T20:42:01.324Z,55.58
2022-12-23T20:44:36.975Z,55.96
2022-12-23T20:47:07.287Z,55.63
2022-12-23T20:49:34.256Z,56.91
2022-12-23T20:52:01.248Z,56.19
2022-12-23T20:54:33.234Z,55.28
2022-12-23T20:57:02.240Z,55.56
2022-12-23T20:59:29.065Z,54.35
2022-12-23T21:01:56.567Z,56.28
2022-12-23T21:04:23.458Z,55.61
2022-12-23T21:06:50.185Z,54.98
2022-12-23T21:09:17.226Z,55.50
2022-12-23T21:11:46.066Z,56.53
2022-12-23T21:14:14.425Z,59.19
2022-12-23T21:16:42.652Z,58.00
2022-12-23T21:19:16.310Z,57.69
2022-12-23T21:21:43.046Z,58.38
2022-12-23T21:24:10.204Z,56.74
2022-12-23T21:26:37.365Z,56.36
2022-12-23T21:29:07.214Z,58.20
2022-12-23T21:31:38.013Z,59.56
2022-12-23T21:34:05.223Z,60.21
2022-12-23T21:36:36.776Z,61.54
2022-12-23T21:39:05.948Z,61.08
2022-12-23T21:41:37.523Z,62.48
2022-12-23T21:44:05.496Z,60.82
2022-12-23T21:46:32.586Z,63.22
2022-12-23T21:48:59.973Z,63.49
2022-12-23T21:51:39.424Z,61.64
2022-12-23T21:54:08.680Z,61.73
2022-12-23T21:56:35.716Z,62.78
2022-12-23T21:59:06.202Z,63.44
2022-12-23T22:01:33.407Z,62.84
2022-12-23T22:04:00.549Z,63.33
2022-12-23T22:06:40.202Z,61.97
2022-12-23T22:09:08.259Z,61.11
2022-12-23T22:11:36.656Z,60.87
2022-12-23T22:14:06.643Z,61.30
2022-12-23T22:16:35.298Z,62.18
2022-12-23T22:19:03.037Z,63.78
2022-12-23T22:21:31.945Z,62.07
2022-12-23T22:24:00.240Z,61.31
2022-12-23T22:26:31.361Z,64.42
2022-12-23T22:29:02.673Z,63.58
2022-12-23T22:31:41.781Z,62.59
2022-12-23T22:34:14.551Z,63.76
2022-12-23T22:36:41.599Z,64.25
2022-12-23T22:39:12.960Z,64.96
2022-12-23T22:41:42.839Z,65.48
2022-12-23T22:44:13.325Z,67.07
2022-12-23T22:46:41.290Z,66.27
2022-12-23T22:49:10.373Z,67.32
2022-12-23T22:51:37.148Z,65.33
2022-12-23T22:54:04.011Z,66.12
2022-12-23T22:56:30.854Z,65.71
2022-12-23T22:58:57.594Z,64.65
2022-12-23T23:01:32.147Z,64.14
2022-12-23T23:04:01.310Z,65.35
2022-12-23T23:06:34.442Z,65.24
2022-12-23T23:09:01.416Z,66.34
2022-12-23T23:11:28.509Z,65.22
2022-12-23T23:13:55.824Z,66.12
2022-12-23T23:16:23.380Z,64.75
2022-12-23T23:18:51.799Z,65.31
2022-12-23T23:21:19.266Z,65.65
2022-12-23T23:23:46.308Z,65.14
2022-12-23T23:26:13.572Z,66.98
2022-12-23T23:28:41.091Z,65.81
2022-12-23T23:33:55.663Z,66.38
2022-12-23T23:36:22.380Z,67.03
2022-12-23T23:38:49.106Z,66.43
2022-12-23T23:41:20.683Z,67.81
2022-12-23T23:43:50.133Z,69.50
2022-12-23T23:46:16.921Z,68.78
2022-12-23T23:48:43.657Z,68.52
2022-12-23T23:51:10.358Z,68.25
2022-12-23T23:53:37.072Z,67.96
2022-12-23T23:56:06.812Z,67.97
2022-12-23T23:58:35.459Z,66.84
